createdAt,value
2023-03-04T00:00:05.943Z,3.00
2023-03-04T00:02:32.576Z,3.23
2023-03-04T00:04:59.161Z,2.90
2023-03-04T00:07:25.766Z,3.20
2023-03-04T00:09:52.460Z,3.43
2023-03-04T00:12:19.078Z,2.33
2023-03-04T00:14:45.680Z,2.37
2023-03-04T00:17:12.309Z,1.87
2023-03-04T00:19:39.157Z,2.37
2023-03-04T00:22:05.801Z,3.07
2023-03-04T00:24:32.452Z,2.40
2023-03-04T00:26:59.082Z,1.77
2023-03-04T00:29:25.901Z,2.60
2023-03-04T00:31:52.751Z,2.20
2023-03-04T00:34:19.592Z,2.27
2023-03-04T00:36:46.599Z,2.20
2023-03-04T00:39:13.729Z,2.17
2023-03-04T00:41:40.447Z,1.57
2023-03-04T00:44:07.090Z,2.30
2023-03-04T00:46:33.920Z,2.23
2023-03-04T00:49:00.608Z,1.63
2023-03-04T00:51:27.477Z,1.73
2023-03-04T00:53:54.144Z,2.50
2023-03-04T00:56:20.758Z,2.00
2023-03-04T00:58:47.423Z,1.83
2023-03-04T01:01:14.086Z,1.70
2023-03-04T01:03:41.496Z,2.17
2023-03-04T01:06:08.377Z,2.03
2023-03-04T01:08:34.987Z,1.87
2023-03-04T01:11:01.573Z,1.47
2023-03-04T01:13:28.239Z,2.13
2023-03-04T01:15:55.908Z,1.30
2023-03-04T01:18:22.524Z,1.97
2023-03-04T01:20:49.161Z,1.37
2023-03-04T01:23:15.796Z,1.17
2023-03-04T01:25:42.457Z,1.10
2023-03-04T01:28:09.109Z,1.87
2023-03-04T01:30:35.776Z,1.43
2023-03-04T01:33:02.428Z,1.07
2023-03-04T01:35:29.109Z,1.10
2023-03-04T01:37:55.692Z,0.80
2023-03-04T01:40:22.417Z,1.90
2023-03-04T01:42:49.199Z,1.40
2023-03-04T01:45:18.382Z,1.30
2023-03-04T01:47:49.039Z,1.33
2023-03-04T01:50:22.672Z,1.00
2023-03-04T01:52:49.561Z,1.70
2023-03-04T01:55:18.991Z,1.60
2023-03-04T01:57:47.725Z,0.80
2023-03-04T02:00:22.800Z,0.80
2023-03-04T02:02:53.895Z,1.30
2023-03-04T02:05:22.220Z,0.93
2023-03-04T02:07:50.938Z,1.97
2023-03-04T02:10:17.865Z,1.57
2023-03-04T02:12:45.483Z,1.53
2023-03-04T02:15:12.277Z,1.13
2023-03-04T02:17:39.428Z,1.17
2023-03-04T02:20:31.046Z,1.67
2023-03-04T02:23:07.327Z,1.13
2023-03-04T02:25:50.650Z,1.40
2023-03-04T02:28:17.299Z,1.60
2023-03-04T02:30:44.080Z,1.23
2023-03-04T02:33:15.996Z,1.50
2023-03-04T02:35:42.820Z,1.60
2023-03-04T02:38:11.101Z,1.27
2023-03-04T02:40:40.275Z,1.27
2023-03-04T02:43:06.924Z,2.00
2023-03-04T02:45:39.188Z,1.30
2023-03-04T02:48:06.703Z,1.70
2023-03-04T02:50:46.972Z,1.07
2023-03-04T02:53:13.680Z,1.60
2023-03-04T02:55:41.449Z,1.57
2023-03-04T02:58:08.256Z,1.80
2023-03-04T03:00:35.124Z,2.00
2023-03-04T03:03:01.923Z,1.23
2023-03-04T03:05:33.550Z,1.63
2023-03-04T03:08:00.213Z,1.93
2023-03-04T03:10:27.465Z,1.73
2023-03-04T03:12:54.077Z,1.60
2023-03-04T03:15:20.772Z,1.50
2023-03-04T03:17:47.378Z,1.83
2023-03-04T03:20:15.023Z,1.50
2023-03-04T03:22:42.237Z,1.53
2023-03-04T03:25:10.515Z,2.70
2023-03-04T03:27:37.270Z,1.43
2023-03-04T03:30:05.615Z,1.60
2023-03-04T03:32:32.289Z,1.60
2023-03-04T03:34:58.978Z,1.57
2023-03-04T03:37:25.680Z,1.33
2023-03-04T03:39:52.267Z,1.70
2023-03-04T03:42:19.074Z,1.03
2023-03-04T03:44:45.720Z,1.80
2023-03-04T03:47:12.315Z,1.90
2023-03-04T03:49:38.978Z,1.00
2023-03-04T03:52:05.640Z,1.70
2023-03-04T03:54:32.258Z,2.10
2023-03-04T03:56:58.891Z,1.30
2023-03-04T03:59:25.539Z,1.87
2023-03-04T04:01:52.210Z,1.90
2023-03-04T04:04:18.949Z,1.60
2023-03-04T04:06:45.737Z,1.43
2023-03-04T04:09:12.424Z,1.70
2023-03-04T04:11:39.015Z,2.10
2023-03-04T04:14:05.650Z,1.30
2023-03-04T04:16:32.356Z,1.50
2023-03-04T04:18:59.016Z,1.80
2023-03-04T04:21:25.601Z,1.80
2023-03-04T04:23:52.364Z,1.90
2023-03-04T04:26:18.967Z,2.67
2023-03-04T04:28:45.632Z,1.97
2023-03-04T04:31:12.342Z,1.77
2023-03-04T04:33:38.977Z,1.80
2023-03-04T04:36:05.920Z,1.47
2023-03-04T04:38:32.570Z,2.07
2023-03-04T04:40:59.851Z,2.17
2023-03-04T04:43:26.601Z,1.70
2023-03-04T04:45:53.219Z,2.60
2023-03-04T04:48:19.888Z,1.90
2023-03-04T04:50:46.605Z,2.17
2023-03-04T04:53:14.330Z,1.97
2023-03-04T04:55:40.963Z,2.53
2023-03-04T04:58:07.761Z,1.60
2023-03-04T05:00:34.506Z,3.70
2023-03-04T05:03:01.105Z,1.43
2023-03-04T05:05:27.768Z,1.90
2023-03-04T05:07:55.400Z,2.80
2023-03-04T05:10:22.006Z,1.60
2023-03-04T05:12:49.725Z,1.80
2023-03-04T05:15:16.622Z,2.10
2023-03-04T05:17:43.245Z,1.80
2023-03-04T05:20:10.637Z,1.30
2023-03-04T05:22:37.203Z,1.60
2023-03-04T05:25:04.014Z,2.23
2023-03-04T05:27:30.588Z,2.50
2023-03-04T05:30:00.250Z,2.20
2023-03-04T05:32:27.769Z,2.70
2023-03-04T05:34:54.406Z,1.60
2023-03-04T05:37:21.082Z,2.77
2023-03-04T05:39:47.725Z,2.27
2023-03-04T05:42:14.312Z,2.30
2023-03-04T05:44:40.941Z,2.20
2023-03-04T05:47:07.703Z,2.87
2023-03-04T05:49:34.299Z,2.40
2023-03-04T05:52:00.914Z,3.17
2023-03-04T05:54:27.534Z,2.30
2023-03-04T05:56:54.724Z,1.70
2023-03-04T05:59:21.385Z,3.00
2023-03-04T06:01:48.539Z,2.60
2023-03-04T06:04:15.222Z,2.87
2023-03-04T06:06:41.921Z,3.57
2023-03-04T06:09:08.504Z,2.70
2023-03-04T06:11:36.374Z,3.70
2023-03-04T06:14:03.691Z,3.23
2023-03-04T06:16:30.492Z,4.40
2023-03-04T06:18:57.234Z,3.10
2023-03-04T06:21:24.157Z,2.40
2023-03-04T06:23:50.784Z,2.17
2023-03-04T06:26:17.530Z,3.10
2023-03-04T06:28:44.963Z,3.03
2023-03-04T06:31:11.620Z,3.10
2023-03-04T06:33:38.321Z,1.67
2023-03-04T06:36:05.309Z,2.37
2023-03-04T06:38:31.923Z,2.60
2023-03-04T06:41:12.430Z,3.57
2023-03-04T06:43:39.228Z,3.00
2023-03-04T06:46:07.313Z,1.83
2023-03-04T06:48:34.304Z,2.60
2023-03-04T06:51:08.597Z,2.07
2023-03-04T06:53:35.789Z,2.30
2023-03-04T06:56:02.661Z,2.30
2023-03-04T06:58:29.293Z,2.90
2023-03-04T07:00:55.943Z,1.97
2023-03-04T07:03:23.427Z,2.63
2023-03-04T07:05:50.041Z,1.80
2023-03-04T07:08:16.639Z,2.60
2023-03-04T07:10:43.295Z,2.30
2023-03-04T07:13:09.874Z,2.33
2023-03-04T07:15:37.728Z,3.20
2023-03-04T07:18:04.367Z,1.80
2023-03-04T07:20:31.845Z,1.77
2023-03-04T07:22:58.494Z,1.60
2023-03-04T07:25:25.288Z,1.90
2023-03-04T07:27:51.885Z,1.87
2023-03-04T07:30:18.597Z,2.53
2023-03-04T07:32:45.226Z,1.47
2023-03-04T07:35:11.856Z,2.00
2023-03-04T07:37:40.228Z,2.07
2023-03-04T07:40:08.511Z,1.43
2023-03-04T07:42:35.133Z,2.63
2023-03-04T07:45:01.888Z,2.10
2023-03-04T07:47:28.586Z,3.00
2023-03-04T07:49:56.142Z,3.20
2023-03-04T07:52:22.917Z,2.20
2023-03-04T07:54:49.520Z,1.60
2023-03-04T07:57:16.109Z,1.30
2023-03-04T07:59:42.761Z,1.70
2023-03-04T08:02:11.004Z,3.00
2023-03-04T08:04:37.622Z,4.10
2023-03-04T08:07:04.267Z,2.60
2023-03-04T08:09:31.343Z,3.40
2023-03-04T08:11:58.013Z,2.07
2023-03-04T08:14:24.655Z,2.47
2023-03-04T08:16:51.249Z,3.43
2023-03-04T08:19:17.867Z,3.10
2023-03-04T08:21:44.481Z,2.50
2023-03-04T08:24:11.651Z,3.80
2023-03-04T08:26:42.724Z,4.33
2023-03-04T08:29:12.737Z,2.70
2023-03-04T08:31:39.778Z,2.60
2023-03-04T08:34:08.422Z,3.00
2023-03-04T08:36:35.180Z,2.37
2023-03-04T08:39:02.696Z,4.43
2023-03-04T08:41:29.356Z,2.37
2023-03-04T08:43:56.009Z,4.60
2023-03-04T08:46:22.746Z,2.60
2023-03-04T08:48:49.507Z,4.30
2023-03-04T08:51:17.021Z,2.83
2023-03-04T08:53:44.233Z,3.50
2023-03-04T08:56:12.289Z,3.53
2023-03-04T08:58:39.232Z,3.20
2023-03-04T09:01:08.814Z,3.17
2023-03-04T09:03:35.852Z,5.07
2023-03-04T09:06:03.843Z,2.30
2023-03-04T09:08:30.687Z,2.33
2023-03-04T09:10:57.397Z,3.37
2023-03-04T09:13:26.369Z,4.83
2023-03-04T09:15:53.705Z,3.43
2023-03-04T09:18:22.691Z,3.10
2023-03-04T09:20:49.775Z,3.20
2023-03-04T09:23:17.499Z,3.10
2023-03-04T09:25:46.365Z,3.43
2023-03-04T09:28:14.246Z,2.43
2023-03-04T09:30:40.979Z,3.33
2023-03-04T09:33:07.737Z,5.27
2023-03-04T09:35:34.400Z,2.73
2023-03-04T09:38:01.038Z,3.60
2023-03-04T09:40:32.422Z,4.13
2023-03-04T09:43:04.056Z,3.97
2023-03-04T09:45:45.597Z,3.47
2023-03-04T09:48:17.399Z,3.60
2023-03-04T09:51:04.289Z,4.63
2023-03-04T09:53:58.297Z,4.87
2023-03-04T09:56:26.808Z,3.63
2023-03-04T09:59:05.131Z,3.80
2023-03-04T10:01:39.922Z,2.60
2023-03-04T10:04:29.032Z,3.03
2023-03-04T10:06:56.553Z,3.53
2023-03-04T10:09:25.136Z,3.13
2023-03-04T10:12:05.881Z,2.37
2023-03-04T10:14:40.279Z,2.60
2023-03-04T10:17:21.841Z,3.33
2023-03-04T10:19:48.399Z,3.57
2023-03-04T10:22:26.711Z,4.17
2023-03-04T10:24:58.822Z,4.87
2023-03-04T10:27:26.523Z,3.00
2023-03-04T10:29:53.254Z,3.00
2023-03-04T10:32:21.315Z,4.53
2023-03-04T10:34:48.083Z,3.53
2023-03-04T10:37:15.069Z,2.53
2023-03-04T10:39:44.960Z,3.33
2023-03-04T10:42:14.726Z,2.63
2023-03-04T10:44:52.977Z,2.40
2023-03-04T10:47:19.845Z,2.30
2023-03-04T10:50:00.191Z,3.43
2023-03-04T10:52:29.705Z,4.43
2023-03-04T10:55:02.505Z,3.13
2023-03-04T10:57:39.256Z,3.03
2023-03-04T11:00:17.887Z,4.73
2023-03-04T11:02:48.332Z,2.70
2023-03-04T11:05:14.907Z,2.30
2023-03-04T11:07:56.760Z,3.40
2023-03-04T11:10:29.857Z,2.60
2023-03-04T11:13:01.847Z,2.30
2023-03-04T11:15:31.279Z,3.73
2023-03-04T11:18:02.973Z,2.90
2023-03-04T11:20:34.604Z,2.97
2023-03-04T11:23:12.108Z,3.00
2023-03-04T11:25:43.528Z,2.27
2023-03-04T11:28:23.226Z,2.33
2023-03-04T11:31:00.931Z,2.80
2023-03-04T11:33:43.778Z,2.63
2023-03-04T11:36:30.054Z,3.90
2023-03-04T11:38:57.664Z,4.53
2023-03-04T11:41:32.398Z,2.90
2023-03-04T11:44:00.292Z,3.10
2023-03-04T11:47:01.120Z,3.17
2023-03-04T11:49:46.095Z,3.90
2023-03-04T11:52:38.168Z,2.93
2023-03-04T11:55:31.340Z,4.23
2023-03-04T11:58:32.401Z,4.10
2023-03-04T12:01:17.219Z,4.07
2023-03-04T12:03:56.523Z,3.53
2023-03-04T12:06:33.024Z,2.97
2023-03-04T12:09:16.148Z,3.50
2023-03-04T12:12:27.151Z,3.37
2023-03-04T12:15:13.648Z,3.57
2023-03-04T12:18:02.511Z,3.20
2023-03-04T12:20:52.443Z,3.33
2023-03-04T12:23:21.807Z,4.03
2023-03-04T12:26:22.180Z,3.50
2023-03-04T12:29:07.396Z,2.97
2023-03-04T12:31:39.102Z,2.77
2023-03-04T12:34:30.469Z,3.00
2023-03-04T12:37:09.362Z,2.90
2023-03-04T12:39:40.346Z,3.00
2023-03-04T12:42:41.316Z,4.07
2023-03-04T12:45:38.351Z,3.67
2023-03-04T12:48:14.990Z,2.83
2023-03-04T12:50:48.182Z,2.90
2023-03-04T12:53:37.479Z,2.40
2023-03-04T12:56:07.951Z,3.07
2023-03-04T12:58:36.850Z,2.50
2023-03-04T13:01:07.912Z,3.00
2023-03-04T13:03:59.662Z,3.57
2023-03-04T13:06:45.218Z,2.30
2023-03-04T13:09:31.736Z,3.47
2023-03-04T13:12:14.279Z,3.13
2023-03-04T13:14:40.933Z,2.07
2023-03-04T13:17:45.514Z,3.33
2023-03-04T13:20:30.420Z,2.67
2023-03-04T13:23:13.678Z,3.07
2023-03-04T13:25:47.589Z,2.60
2023-03-04T13:28:28.190Z,2.63
2023-03-04T13:30:55.757Z,2.43
2023-03-04T13:33:22.570Z,4.73
2023-03-04T13:36:02.128Z,3.53
2023-03-04T13:38:30.783Z,1.93
2023-03-04T13:41:22.638Z,2.97
2023-03-04T13:43:54.250Z,2.73
2023-03-04T13:46:21.008Z,2.60
2023-03-04T13:48:50.849Z,3.00
2023-03-04T13:51:43.015Z,3.47
2023-03-04T13:54:29.762Z,1.90
2023-03-04T13:57:16.589Z,2.80
2023-03-04T13:59:49.092Z,2.50
2023-03-04T14:02:25.572Z,2.93
2023-03-04T14:04:59.552Z,3.03
2023-03-04T14:07:35.485Z,2.20
2023-03-04T14:10:05.118Z,3.23
2023-03-04T14:12:53.504Z,2.30
2023-03-04T14:15:29.481Z,2.50
2023-03-04T14:18:01.870Z,2.60
2023-03-04T14:20:37.544Z,1.90
2023-03-04T14:23:22.782Z,1.53
2023-03-04T14:25:49.730Z,2.30
2023-03-04T14:28:20.884Z,2.60
2023-03-04T14:30:56.499Z,1.87
2023-03-04T14:33:28.636Z,1.80
2023-03-04T14:36:01.332Z,1.80
2023-03-04T14:38:34.852Z,2.10
2023-03-04T14:41:11.111Z,2.00
2023-03-04T14:44:01.226Z,2.50
2023-03-04T14:46:34.490Z,1.97
2023-03-04T14:49:01.567Z,2.37
2023-03-04T14:51:43.321Z,2.13
2023-03-04T14:54:33.136Z,2.23
2023-03-04T14:57:01.922Z,2.17
2023-03-04T14:59:37.349Z,2.70
2023-03-04T15:02:33.070Z,2.10
2023-03-04T15:05:16.563Z,2.40
2023-03-04T15:07:49.648Z,2.30
2023-03-04T15:10:22.209Z,2.33
2023-03-04T15:12:55.220Z,1.90
2023-03-04T15:15:37.003Z,2.83
2023-03-04T15:18:18.291Z,2.33
2023-03-04T15:20:54.161Z,2.00
2023-03-04T15:23:20.808Z,1.90
2023-03-04T15:25:52.951Z,2.00
2023-03-04T15:28:21.109Z,2.10
2023-03-04T15:30:47.810Z,2.07
2023-03-04T15:33:14.858Z,1.87
2023-03-04T15:35:48.590Z,1.97
2023-03-04T15:38:15.231Z,3.70
2023-03-04T15:40:43.215Z,2.47
2023-03-04T15:43:14.944Z,2.30
2023-03-04T15:45:42.137Z,2.13
2023-03-04T15:48:11.832Z,1.80
2023-03-04T15:50:55.832Z,2.07
2023-03-04T15:53:36.912Z,2.23
2023-03-04T15:56:05.898Z,1.77
2023-03-04T15:58:35.001Z,1.30
2023-03-04T16:01:02.146Z,2.40
2023-03-04T16:03:28.820Z,2.00
2023-03-04T16:05:56.553Z,2.07
2023-03-04T16:08:27.250Z,2.70
2023-03-04T16:10:54.798Z,2.30
2023-03-04T16:13:23.810Z,2.80
2023-03-04T16:15:50.982Z,2.30
2023-03-04T16:18:18.100Z,2.67
2023-03-04T16:20:47.315Z,1.97
2023-03-04T16:23:18.715Z,1.80
2023-03-04T16:25:46.762Z,1.70
2023-03-04T16:28:14.288Z,2.73
2023-03-04T16:30:41.604Z,1.80
2023-03-04T16:33:08.629Z,2.53
2023-03-04T16:35:36.653Z,2.37
2023-03-04T16:38:06.165Z,1.97
2023-03-04T16:40:33.308Z,1.40
2023-03-04T16:42:59.942Z,1.80
2023-03-04T16:45:30.277Z,2.60
2023-03-04T16:47:56.959Z,1.50
2023-03-04T16:50:27.262Z,2.53
2023-03-04T16:52:55.403Z,1.70
2023-03-04T16:55:25.570Z,1.97
2023-03-04T16:57:53.188Z,3.47
2023-03-04T17:00:22.511Z,1.90
2023-03-04T17:02:58.769Z,1.80
2023-03-04T17:05:28.514Z,2.10
2023-03-04T17:07:55.160Z,2.20
2023-03-04T17:10:22.996Z,2.07
2023-03-04T17:12:50.482Z,2.20
2023-03-04T17:15:17.502Z,1.70
2023-03-04T17:17:44.234Z,1.53
2023-03-04T17:20:14.531Z,1.60
2023-03-04T17:22:41.222Z,1.83
2023-03-04T17:25:08.394Z,3.70
2023-03-04T17:27:35.348Z,2.00
2023-03-04T17:30:03.657Z,1.73
2023-03-04T17:32:32.513Z,2.63
2023-03-04T17:34:59.809Z,1.40
2023-03-04T17:37:26.916Z,1.50
2023-03-04T17:39:53.608Z,1.63
2023-03-04T17:42:20.487Z,1.80
2023-03-04T17:44:47.111Z,2.40
2023-03-04T17:47:14.222Z,2.37
2023-03-04T17:49:40.908Z,1.47
2023-03-04T17:52:07.585Z,2.53
2023-03-04T17:54:35.966Z,1.60
2023-03-04T17:57:02.588Z,1.57
2023-03-04T17:59:29.218Z,1.73
2023-03-04T18:01:55.909Z,1.97
2023-03-04T18:04:22.941Z,3.30
2023-03-04T18:06:49.570Z,1.67
2023-03-04T18:09:16.152Z,2.23
2023-03-04T18:11:43.923Z,2.23
2023-03-04T18:14:12.676Z,1.97
2023-03-04T18:16:40.354Z,2.00
2023-03-04T18:19:09.250Z,2.17
2023-03-04T18:21:36.347Z,2.13
2023-03-04T18:24:03.471Z,2.63
2023-03-04T18:26:30.301Z,1.80
2023-03-04T18:28:57.580Z,2.80
2023-03-04T18:31:31.069Z,2.00
2023-03-04T18:34:02.605Z,2.60
2023-03-04T18:36:29.795Z,1.90
2023-03-04T18:38:59.219Z,1.77
2023-03-04T18:41:27.756Z,2.27
2023-03-04T18:43:54.757Z,1.10
2023-03-04T18:46:29.279Z,1.97
2023-03-04T18:49:01.543Z,1.50
2023-03-04T18:51:28.269Z,1.90
2023-03-04T18:53:54.897Z,1.93
2023-03-04T18:56:28.223Z,1.67
2023-03-04T18:58:55.294Z,1.70
2023-03-04T19:01:25.421Z,1.57
2023-03-04T19:03:54.297Z,2.33
2023-03-04T19:06:21.212Z,1.87
2023-03-04T19:08:50.757Z,2.70
2023-03-04T19:11:17.505Z,1.70
2023-03-04T19:13:44.155Z,1.77
2023-03-04T19:16:10.843Z,2.00
2023-03-04T19:18:37.604Z,2.33
2023-03-04T19:21:05.384Z,1.43
2023-03-04T19:23:32.500Z,2.57
2023-03-04T19:25:59.211Z,1.57
2023-03-04T19:28:26.019Z,1.97
2023-03-04T19:30:53.866Z,2.20
2023-03-04T19:33:20.622Z,2.13
2023-03-04T19:35:47.631Z,2.00
2023-03-04T19:38:14.311Z,1.50
2023-03-04T19:40:42.172Z,2.00
2023-03-04T19:43:09.220Z,2.70
2023-03-04T19:45:35.840Z,1.60
2023-03-04T19:48:03.133Z,1.93
2023-03-04T19:50:31.353Z,2.00
2023-03-04T19:52:58.286Z,2.23
2023-03-04T19:55:25.213Z,1.90
2023-03-04T19:57:51.866Z,1.80
2023-03-04T20:00:18.966Z,1.50
2023-03-04T20:02:47.826Z,1.70
2023-03-04T20:05:14.593Z,2.07
2023-03-04T20:07:41.421Z,1.87
2023-03-04T20:10:09.489Z,1.93
2023-03-04T20:12:36.539Z,1.97
2023-03-04T20:15:06.277Z,2.30
2023-03-04T20:17:32.916Z,1.37
2023-03-04T20:19:59.503Z,1.53
2023-03-04T20:22:26.235Z,2.20
2023-03-04T20:24:54.795Z,1.90
2023-03-04T20:27:21.536Z,1.80
2023-03-04T20:29:49.119Z,2.27
2023-03-04T20:32:15.741Z,2.13
2023-03-04T20:34:42.353Z,1.90
2023-03-04T20:37:08.929Z,2.37
2023-03-04T20:39:35.567Z,1.93
2023-03-04T20:42:02.177Z,2.13
2023-03-04T20:44:28.884Z,2.33
2023-03-04T20:46:55.601Z,1.80
2023-03-04T20:49:28.052Z,1.80
2023-03-04T20:51:59.408Z,1.73
2023-03-04T20:54:26.212Z,1.57
2023-03-04T20:56:52.885Z,2.47
2023-03-04T20:59:19.567Z,1.37
2023-03-04T21:01:48.044Z,2.10
2023-03-04T21:04:16.026Z,2.10
2023-03-04T21:06:43.661Z,1.60
2023-03-04T21:09:13.650Z,1.20
2023-03-04T21:11:40.915Z,1.90
2023-03-04T21:14:22.048Z,1.67
2023-03-04T21:16:51.033Z,2.20
2023-03-04T21:19:20.669Z,1.50
2023-03-04T21:21:48.846Z,1.30
2023-03-04T21:24:18.374Z,1.57
2023-03-04T21:26:45.443Z,1.83
2023-03-04T21:29:12.745Z,1.57
2023-03-04T21:31:41.804Z,1.83
2023-03-04T21:34:18.612Z,1.33
2023-03-04T21:36:45.349Z,2.17
2023-03-04T21:39:15.614Z,1.20
2023-03-04T21:41:42.402Z,1.87
2023-03-04T21:44:14.512Z,1.63
2023-03-04T21:46:49.916Z,1.20
2023-03-04T21:49:16.666Z,1.67
2023-03-04T21:51:44.408Z,2.10
2023-03-04T21:54:12.803Z,1.67
2023-03-04T21:56:39.723Z,1.67
2023-03-04T21:59:08.432Z,1.50
2023-03-04T22:01:35.431Z,2.10
2023-03-04T22:04:02.399Z,1.90
2023-03-04T22:06:30.859Z,1.30
2023-03-04T22:08:57.496Z,1.20
2023-03-04T22:11:24.528Z,1.27
2023-03-04T22:13:58.955Z,1.20
2023-03-04T22:16:26.260Z,1.07
2023-03-04T22:18:53.193Z,1.53
2023-03-04T22:21:21.594Z,1.50
2023-03-04T22:23:48.186Z,1.57
2023-03-04T22:26:17.758Z,1.40
2023-03-04T22:28:45.057Z,1.67
2023-03-04T22:31:30.300Z,2.10
2023-03-04T22:33:56.871Z,1.70
2023-03-04T22:36:23.462Z,1.10
2023-03-04T22:38:50.143Z,2.00
2023-03-04T22:41:18.503Z,1.37
2023-03-04T22:43:45.305Z,1.10
2023-03-04T22:46:17.984Z,1.10
2023-03-04T22:48:44.643Z,1.60
2023-03-04T22:51:12.546Z,1.70
2023-03-04T22:53:40.003Z,1.83
2023-03-04T22:56:07.584Z,1.10
2023-03-04T22:58:34.525Z,2.23
2023-03-04T23:01:02.601Z,1.30
2023-03-04T23:03:32.620Z,1.67
2023-03-04T23:06:14.810Z,1.03
2023-03-04T23:08:43.671Z,1.20
2023-03-04T23:11:19.812Z,1.20
2023-03-04T23:13:47.157Z,1.57
2023-03-04T23:16:14.816Z,1.73
2023-03-04T23:18:42.859Z,1.70
2023-03-04T23:21:12.564Z,1.50
2023-03-04T23:23:41.074Z,2.20
2023-03-04T23:26:17.578Z,1.50
2023-03-04T23:28:44.570Z,1.47
2023-03-04T23:31:14.602Z,1.60
2023-03-04T23:33:43.002Z,1.53
2023-03-04T23:36:15.583Z,2.00
2023-03-04T23:38:43.802Z,1.27
2023-03-04T23:41:13.067Z,1.17
2023-03-04T23:43:39.745Z,1.20
2023-03-04T23:46:09.093Z,1.60
2023-03-04T23:48:35.763Z,1.23
2023-03-04T23:51:02.447Z,1.10
2023-03-04T23:53:29.431Z,1.00
2023-03-04T23:55:56.213Z,1.90
2023-03-04T23:58:22.826Z,0.90
